Terminal Aerodrome Forecast
Issued by NWS

Home | Current Version | Previous Version | Text Only | Print | Product List | Glossary On
Versions: 1 2 3 4 5 6 7 8 9 10 11 12
000
FTUS45 KRIW 230500
TAFRKS
TAF
KRKS 230520Z 2306/2406 25022G34KT P6SM VCSH SCT045 BKN060
     FM230900 26025G35KT P6SM SCT050 BKN080
     FM231400 27026G36KT P6SM BKN080
     FM240200 27018KT P6SM SCT080
     FM240500 26011KT P6SM SCT080=

USA.gov is the U.S. government's official web portal to all federal, state and local government web resources and services.